Terminal Aerodrome Forecast
Issued by NWS Omaha/Valley, NE

Home | Current Version | Previous Version | Graphics & Text | Print | Product List | Glossary On
Versions: 1 2 3 4 5 6 7 8 9 10 11 12 13 14 15 16 17 18 19 20 21 22 23 24 25
000
FTUS43 KOAX 260937 AAB
TAFOFK
TAF AMD
KOFK 260937Z 2610/2706 VRB03KT P6SM OVC006
      TEMPO 2610/2612 2SM BR OVC004
     FM261200 VRB03KT 2SM BR OVC004
     FM261600 02004KT P6SM OVC007
     FM262100 36006KT P6SM OVC015=

USA.gov is the U.S. government's official web portal to all federal, state and local government web resources and services.